ENVA Airport Information

Runway Information
Runway 09 Length 9052 ft width 148 ft
Elevation 17 ft Threshold 830 ft Heading 90
Runway 27 Length 9052 ft Width 148 ft
Elevation 56 ft Threshold 459 ft Heading 270
Runway 13 Length 4771 ft width 118 ft
Elevation 30 ft Threshold 412 ft Heading 134
Runway 31 Length 4771 ft Width 118 ft
Elevation 54 ft Threshold 962 ft Heading 314
Runway 14 Length 3117 ft width 118 ft
Elevation 30 ft Threshold 0 ft Heading 134
Runway 32 Length 3117 ft Width 118 ft
Elevation 54 ft Threshold 0 ft Heading 314
Airport Frequencies
Type APP Name APP Frequency 118.6 MHZ
Type ATIS Name ATIS Frequency 127.55 MHZ
Type GND Name Værnes gro Frequency 121.6 MHZ
Type TWR Name TWR Frequency 119.4 MHZ
Airport Navaids
Type NDB Name Flornes Frequency 380 KHZ
Type NDB Name Grakallen Frequency 358 KHZ
Type VOR-DME Name Trondheim Frequency 112500 KHZ
Type TACAN Name Vaernes Frequency 109600 KHZ
Airport Weather Information & NOTAM
ADDS - METARS form results

(1452 UTC 01 December 2020)
Data provider http://aviationweather.gov/metar/data/
 
METAR text: ENVA 011450Z 11004KT 080V150 9999 FEW026 SCT051 01/M01 Q1022 NOSIG RMK WIND 670FT 22011KT
Conditions at: ENVA (TRONDHEIM/VAERNE, NO) observed 1450 UTC 01 December 2020
Temperature: 1.0°C (34°F)
Dewpoint: -1.0°C (30°F) [RH = 86%]
Pressure (altimeter): 30.18 inches Hg (1022.0 mb)
Winds: from the ESE (110 degrees) at 5 MPH (4 knots; 2.1 m/s)
Visibility: 6 or more miles (10+ km)
Ceiling: at least 12,000 feet AGL
Clouds: few clouds at 2600 feet AGL
scattered clouds at 5100 feet AGL
Weather: no significant weather observed at this time

METAR text: ENVA 011420Z 11005KT 9999 FEW003 SCT049 01/M01 Q1022 NOSIG RMK WIND 670FT 22010KT
Conditions at: ENVA (TRONDHEIM/VAERNE, NO) observed 1420 UTC 01 December 2020
Temperature: 1.0°C (34°F)
Dewpoint: -1.0°C (30°F) [RH = 86%]
Pressure (altimeter): 30.18 inches Hg (1022.0 mb)
Winds: from the ESE (110 degrees) at 6 MPH (5 knots; 2.6 m/s)
Visibility: 6 or more miles (10+ km)
Ceiling: at least 12,000 feet AGL
Clouds: few clouds at 300 feet AGL
scattered clouds at 4900 feet AGL
Weather: no significant weather observed at this time

Forecast for: AMD
Text: AMD ENVA 0112/0212 13008KT 9999 FEW020 SCT050
Forecast period: 1200 UTC 01 December 2020 to 1200 UTC 02 December 2020
Forecast type: FROM: standard forecast or significant change
Winds: from the SE (130 degrees) at 9 MPH (8 knots; 4.1 m/s)
Visibility: 6 or more miles (10+ km)
Ceiling: at least 12,000 feet AGL
Clouds: few clouds at 2000 feet AGL
scattered clouds at 5000 feet AGL
Weather: no significant weather forecast for this period
Text: PROB40
Forecast period: 1800 UTC 01 December 2020 to 1200 UTC 02 December 2020
Forecast type: TEMPORARY: The following changes expected for less than half the time period
Winds: from the SSE (150 degrees) at 17 MPH (15 knots; 7.7 m/s)
gusting to 29 MPH (25 knots; 12.9 m/s)
Visibility: missing
Ceiling: unknown
Clouds: missing
Weather: no significant weather forecast for this period